Time;durP1;ratioP1;P1;durP2;ratioP2;P2;SDS_P1;SDS_P2;PMS_P1;PMS_P2;Temp;Humidity;BMP_temperature;BMP_pressure;BME280_temperature;BME280_humidity;BME280_pressure;Samples;Min_cycle;Max_cycle;Signal;HPM_P1;HPM_P2
2022/08/24 00:02:07;;;;;;;65.82;28.67;;;19.60;99.90;;;;;;10218210;29;20094;-80
2022/08/24 00:07:07;;;;;;;57.15;26.63;;;19.60;99.90;;;;;;10215168;29;20531;-80
2022/08/24 00:12:08;;;;;;;55.47;26.00;;;19.60;99.90;;;;;;10205482;29;20031;-80
2022/08/24 00:17:09;;;;;;;50.03;24.67;;;19.60;99.90;;;;;;10203142;29;20806;-79
2022/08/24 00:22:09;;;;;;;46.17;24.80;;;19.60;99.90;;;;;;10225816;29;20373;-80
2022/08/24 00:27:11;;;;;;;40.55;22.15;;;19.70;99.90;;;;;;10207842;29;20861;-79
2022/08/24 00:32:11;;;;;;;40.95;24.27;;;19.70;99.90;;;;;;10221942;29;20463;-79
2022/08/24 00:37:12;;;;;;;41.55;23.92;;;19.60;99.90;;;;;;10211231;29;20016;-80
2022/08/24 00:42:12;;;;;;;49.85;24.92;;;19.60;99.90;;;;;;10211030;29;20050;-79
2022/08/24 00:47:22;;;;;;;42.53;23.90;;;19.60;99.90;;;;;;10205318;29;20050;-79
2022/08/24 00:52:39;;;;;;;39.63;23.55;;;19.70;99.90;;;;;;10203424;29;20106;-79
2022/08/24 00:57:42;;;;;;;51.45;27.98;;;19.70;99.90;;;;;;10210931;29;20428;-78
2022/08/24 01:02:47;;;;;;;45.33;24.40;;;19.70;99.90;;;;;;10206782;29;20091;-79
2022/08/24 01:07:48;;;;;;;64.43;30.52;;;19.70;99.90;;;;;;10212959;29;20031;-78
2022/08/24 01:12:51;;;;;;;58.90;29.42;;;19.70;99.90;;;;;;10188284;29;20031;-81
2022/08/24 01:23:33;;;;;;;72.18;30.27;;;19.80;99.90;;;;;;10209081;29;20082;-81
2022/08/24 01:28:35;;;;;;;63.05;28.58;;;19.70;99.90;;;;;;10203755;29;20040;-80
2022/08/24 01:33:36;;;;;;;71.05;30.38;;;19.80;99.90;;;;;;10208783;29;20060;-78
2022/08/24 01:38:36;;;;;;;69.10;29.75;;;19.70;99.90;;;;;;10199246;29;20041;-80
2022/08/24 01:43:37;;;;;;;58.08;27.85;;;19.70;99.90;;;;;;10212749;29;20035;-78
2022/08/24 01:48:37;;;;;;;57.20;26.35;;;19.60;99.90;;;;;;10219586;29;20035;-78
2022/08/24 01:53:38;;;;;;;60.47;27.13;;;19.60;99.90;;;;;;10236233;29;20039;-79
2022/08/24 01:58:47;;;;;;;63.15;28.75;;;19.60;99.90;;;;;;10220213;29;20399;-79
2022/08/24 02:03:47;;;;;;;58.75;27.45;;;19.60;99.90;;;;;;10222012;29;20436;-78
2022/08/24 02:08:48;;;;;;;55.78;25.73;;;19.60;99.90;;;;;;10230020;29;20063;-80
2022/08/24 02:13:49;;;;;;;59.22;27.85;;;19.60;99.90;;;;;;10229053;29;20063;-80
2022/08/24 02:18:49;;;;;;;67.53;27.92;;;19.60;99.90;;;;;;10217931;29;20039;-78
2022/08/24 02:23:51;;;;;;;60.85;27.35;;;19.60;99.90;;;;;;10216267;29;20058;-79
2022/08/24 02:28:52;;;;;;;53.05;25.10;;;19.60;99.90;;;;;;10213974;29;20720;-78
2022/08/24 02:33:52;;;;;;;52.55;26.30;;;19.60;99.90;;;;;;10208763;29;20044;-78
2022/08/24 02:38:54;;;;;;;43.88;23.52;;;19.70;99.90;;;;;;10205295;29;20060;-79
2022/08/24 02:43:55;;;;;;;47.90;24.60;;;19.60;99.90;;;;;;10217043;29;20091;-81
2022/08/24 02:49:00;;;;;;;40.53;23.52;;;19.70;99.90;;;;;;10213576;29;20031;-79
2022/08/24 02:54:01;;;;;;;45.10;23.27;;;19.70;99.90;;;;;;10219459;29;20032;-78
2022/08/24 02:59:02;;;;;;;42.85;24.65;;;19.70;99.90;;;;;;10222634;28;20291;-79
2022/08/24 03:04:03;;;;;;;41.65;23.20;;;19.70;99.90;;;;;;10213271;29;20036;-79
2022/08/24 03:09:04;;;;;;;36.45;20.77;;;19.70;99.90;;;;;;10231290;29;20110;-81
2022/08/24 03:14:05;;;;;;;44.08;24.40;;;19.70;99.90;;;;;;10219614;29;20042;-80
2022/08/24 03:19:05;;;;;;;44.13;22.63;;;19.70;99.90;;;;;;10213373;29;20488;-81
2022/08/24 03:24:06;;;;;;;45.08;23.40;;;19.60;99.90;;;;;;10229235;29;20046;-79
2022/08/24 03:29:07;;;;;;;43.92;25.15;;;19.60;99.90;;;;;;10222256;29;20027;-80
2022/08/24 03:34:08;;;;;;;47.00;25.20;;;19.70;99.90;;;;;;10205438;29;20055;-80
2022/08/24 03:39:09;;;;;;;43.83;24.17;;;19.60;99.90;;;;;;10210933;29;20589;-79
2022/08/24 03:44:10;;;;;;;39.33;22.35;;;19.60;99.90;;;;;;10219996;29;20031;-81
2022/08/24 03:49:12;;;;;;;38.25;22.98;;;19.60;99.90;;;;;;10222298;29;20024;-81
2022/08/24 03:54:13;;;;;;;49.45;25.60;;;19.60;99.90;;;;;;10206963;29;20032;-82
2022/08/24 03:59:13;;;;;;;44.30;24.55;;;19.70;99.90;;;;;;10225740;29;20040;-80
2022/08/24 04:04:14;;;;;;;46.72;24.48;;;19.70;99.90;;;;;;10211819;29;20035;-81
2022/08/24 04:09:15;;;;;;;43.13;23.95;;;19.70;99.90;;;;;;10201184;29;20024;-81
2022/08/24 04:14:18;;;;;;;39.53;21.73;;;19.80;99.90;;;;;;10198797;29;20039;-83
2022/08/24 04:19:18;;;;;;;45.42;25.27;;;19.70;99.90;;;;;;10201384;29;20672;-79
2022/08/24 04:24:19;;;;;;;42.50;23.35;;;19.70;99.90;;;;;;10192291;29;20020;-79
2022/08/24 04:29:21;;;;;;;41.42;23.35;;;19.70;99.90;;;;;;10190771;29;20122;-87
2022/08/24 04:34:22;;;;;;;40.17;22.92;;;19.80;99.90;;;;;;10178260;29;20086;-87
2022/08/24 04:39:23;;;;;;;38.58;22.13;;;19.80;99.90;;;;;;10180191;29;20034;-89
2022/08/24 04:44:23;;;;;;;37.22;21.58;;;19.80;99.90;;;;;;10202936;29;20048;-87
2022/08/24 04:49:24;;;;;;;39.30;21.63;;;19.90;99.90;;;;;;10204279;29;20028;-88
2022/08/24 04:54:25;;;;;;;37.35;21.58;;;19.90;99.90;;;;;;10194836;29;20039;-88
2022/08/24 04:59:25;;;;;;;35.90;21.40;;;19.90;99.90;;;;;;10199393;29;20122;-86
2022/08/24 05:04:26;;;;;;;39.78;21.88;;;20.00;99.90;;;;;;10201264;29;20031;-85
2022/08/24 05:09:26;;;;;;;35.10;19.70;;;20.00;99.90;;;;;;10200246;29;20110;-86
2022/08/24 05:14:27;;;;;;;42.25;22.85;;;20.10;99.90;;;;;;10180605;29;20140;-88
2022/08/24 05:19:28;;;;;;;34.65;20.27;;;20.20;99.90;;;;;;10170677;29;20454;-85
2022/08/24 05:24:29;;;;;;;35.30;21.10;;;20.20;99.90;;;;;;10187669;29;20127;-85
2022/08/24 05:29:32;;;;;;;32.05;20.33;;;20.30;99.90;;;;;;10204184;29;20027;-86
2022/08/24 05:34:33;;;;;;;25.70;17.60;;;20.40;99.90;;;;;;10194142;29;20505;-85
2022/08/24 05:39:33;;;;;;;28.55;18.58;;;20.40;99.90;;;;;;10222776;29;20117;-85
2022/08/24 05:44:34;;;;;;;23.33;16.23;;;20.50;99.90;;;;;;10222003;29;20035;-84
2022/08/24 05:49:35;;;;;;;26.73;17.63;;;20.60;99.90;;;;;;10234058;29;20527;-85
2022/08/24 05:54:35;;;;;;;26.08;17.90;;;20.60;99.90;;;;;;10220060;29;20042;-85
2022/08/24 05:59:36;;;;;;;22.35;14.90;;;20.70;99.90;;;;;;10225990;29;20071;-84
2022/08/24 06:04:37;;;;;;;23.10;15.50;;;20.80;99.90;;;;;;10223334;29;20046;-86
2022/08/24 06:09:39;;;;;;;24.08;16.95;;;20.90;99.90;;;;;;10219676;29;20027;-85
2022/08/24 06:14:40;;;;;;;24.85;15.35;;;21.00;99.90;;;;;;10217172;29;20083;-88
2022/08/24 06:19:42;;;;;;;27.55;15.90;;;21.10;99.90;;;;;;10198052;29;20090;-87
2022/08/24 06:30:08;;;;;;;22.60;13.93;;;21.20;99.90;;;;;;10220009;29;20110;-85
2022/08/24 06:35:09;;;;;;;22.75;14.15;;;21.20;99.90;;;;;;10218000;28;20062;-86
2022/08/24 06:40:10;;;;;;;23.02;14.77;;;21.30;99.90;;;;;;10205013;29;20040;-85
2022/08/24 06:45:10;;;;;;;23.48;15.48;;;21.30;99.90;;;;;;10217297;29;20138;-87
2022/08/24 06:50:11;;;;;;;24.33;15.55;;;21.20;99.90;;;;;;10201028;29;20032;-88
2022/08/24 06:55:12;;;;;;;21.98;15.18;;;21.20;99.90;;;;;;10226817;29;20035;-87
2022/08/24 07:00:13;;;;;;;25.35;16.67;;;21.10;99.90;;;;;;10211434;29;20031;-88
2022/08/24 07:05:14;;;;;;;28.10;17.25;;;21.10;99.90;;;;;;10226418;29;20481;-86
2022/08/24 07:10:14;;;;;;;27.13;17.20;;;21.10;99.90;;;;;;10234146;29;20031;-86
2022/08/24 07:15:15;;;;;;;27.45;17.55;;;21.20;99.90;;;;;;10224267;29;20031;-85
2022/08/24 07:20:16;;;;;;;24.73;16.25;;;21.20;99.90;;;;;;10207900;29;20387;-84
2022/08/24 07:25:17;;;;;;;24.95;16.17;;;21.20;99.90;;;;;;10211455;29;20034;-85
2022/08/24 07:30:17;;;;;;;27.95;17.17;;;21.40;99.90;;;;;;10216666;29;20023;-85
2022/08/24 07:35:18;;;;;;;27.58;17.05;;;21.60;99.90;;;;;;10213402;29;20227;-84
2022/08/24 07:40:19;;;;;;;25.42;17.17;;;21.80;99.90;;;;;;10209630;29;20043;-83
2022/08/24 07:45:21;;;;;;;27.67;18.05;;;21.90;99.90;;;;;;10207819;28;20038;-85
2022/08/24 07:50:42;;;;;;;27.75;18.23;;;22.10;99.90;;;;;;10216568;29;20038;-85
2022/08/24 07:55:55;;;;;;;28.23;16.63;;;22.30;99.90;;;;;;10195978;29;20031;-87
2022/08/24 08:00:56;;;;;;;26.23;16.33;;;22.70;99.90;;;;;;10225126;29;20042;-85
2022/08/24 08:05:59;;;;;;;26.80;16.23;;;23.00;99.90;;;;;;10206151;29;20683;-84
2022/08/24 08:11:01;;;;;;;24.85;15.88;;;23.00;99.90;;;;;;10181343;29;20136;-84
2022/08/24 08:16:03;;;;;;;29.27;15.88;;;23.00;99.90;;;;;;10224602;29;20058;-84
2022/08/24 08:24:13;;;;;;;40.63;16.58;;;22.90;99.90;;;;;;10439788;28;20406;-88
2022/08/24 08:26:32;;;;;;;24.50;15.65;;;22.90;99.90;;;;;;10439279;28;20133;-86
2022/08/24 08:31:32;;;;;;;22.48;14.82;;;23.00;99.90;;;;;;10439772;28;20571;-84
2022/08/24 08:36:34;;;;;;;25.35;15.00;;;23.20;99.90;;;;;;10439155;28;20115;-85
2022/08/24 08:42:09;;;;;;;20.58;13.30;;;23.30;99.90;;;;;;10439447;28;20059;-85
2022/08/24 08:47:34;;;;;;;26.42;13.70;;;23.20;99.90;;;;;;10437005;28;20053;-86
2022/08/24 08:53:00;;;;;;;19.80;13.50;;;23.50;99.90;;;;;;10439019;28;20056;-85
2022/08/24 08:58:46;;;;;;;20.98;13.68;;;23.90;99.90;;;;;;10439277;28;20045;-86
2022/08/24 09:04:05;;;;;;;;;;;23.80;99.90;;;;;;10425494;28;20489;-86
2022/08/24 09:09:17;;;;;;;22.88;12.95;;;23.90;99.90;;;;;;10438378;28;19978;-87
2022/08/24 09:14:55;;;;;;;19.73;11.75;;;23.80;99.90;;;;;;10437869;28;20025;-87
2022/08/24 09:20:37;;;;;;;25.15;12.05;;;23.90;99.90;;;;;;10435209;28;20069;-87
2022/08/24 09:25:50;;;;;;;24.70;11.52;;;24.30;99.90;;;;;;10434717;28;20021;-86
2022/08/24 09:31:15;;;;;;;25.38;12.10;;;24.80;99.90;;;;;;10411645;28;20025;-86
2022/08/24 09:36:48;;;;;;;23.63;11.52;;;25.00;99.90;;;;;;10404638;28;20017;-85
2022/08/24 09:42:28;;;;;;;24.20;12.52;;;25.30;99.90;;;;;;10406512;28;20843;-86
2022/08/24 09:47:41;;;;;;;27.38;11.90;;;25.30;99.90;;;;;;10406393;28;20067;-86
2022/08/24 09:53:08;;;;;;;25.13;11.75;;;25.40;99.90;;;;;;10408995;28;20057;-85
2022/08/24 09:58:34;;;;;;;29.25;13.45;;;25.40;99.90;;;;;;10407980;28;20041;-85
2022/08/24 10:03:53;;;;;;;25.15;12.63;;;25.10;99.90;;;;;;10402896;28;20086;-86
2022/08/24 10:09:07;;;;;;;24.00;12.77;;;25.30;99.90;;;;;;10406828;28;20029;-86
2022/08/24 10:14:46;;;;;;;28.10;12.90;;;25.10;99.90;;;;;;10404215;28;20466;-86
2022/08/24 10:20:19;;;;;;;22.63;11.82;;;25.50;99.90;;;;;;10404792;28;20111;-86
2022/08/24 10:25:26;;;;;;;25.67;12.23;;;26.00;99.90;;;;;;10407517;28;20421;-85
2022/08/24 10:30:45;;;;;;;32.17;11.75;;;26.60;99.90;;;;;;10404934;28;20069;-84
2022/08/24 10:35:46;;;;;;;27.05;11.38;;;26.90;99.90;;;;;;10390252;28;20037;-86
2022/08/24 10:41:08;;;;;;;22.98;11.15;;;26.80;99.90;;;;;;10404371;28;20122;-87
2022/08/24 10:46:51;;;;;;;29.75;12.02;;;26.80;99.90;;;;;;10403761;28;20151;-86
2022/08/24 10:52:13;;;;;;;28.45;11.43;;;27.00;99.90;;;;;;10402469;28;20060;-85
2022/08/24 10:57:24;;;;;;;27.10;12.00;;;27.30;99.90;;;;;;10401234;28;20038;-86
2022/08/24 11:02:31;;;;;;;32.97;13.02;;;26.40;99.90;;;;;;10407134;28;20116;-86
2022/08/24 11:07:33;;;;;;;30.75;12.02;;;26.40;99.90;;;;;;10396843;28;20025;-87
2022/08/24 11:12:42;;;;;;;32.47;11.77;;;26.90;99.90;;;;;;10401633;28;20033;-86
2022/08/24 11:17:56;;;;;;;27.40;12.10;;;27.50;99.90;;;;;;10405049;28;20057;-86
2022/08/24 11:23:13;;;;;;;30.13;11.13;;;27.60;99.90;;;;;;10400907;28;20040;-88
2022/08/24 11:28:28;;;;;;;26.25;11.00;;;27.40;99.90;;;;;;10391950;28;20528;-86
2022/08/24 11:33:43;;;;;;;29.95;11.32;;;27.30;99.90;;;;;;10405509;28;20504;-86
2022/08/24 11:38:46;;;;;;;36.88;14.70;;;27.70;99.90;;;;;;10402863;28;20037;-86
2022/08/24 11:44:00;;;;;;;28.00;11.77;;;27.90;99.90;;;;;;10385810;28;20383;-86
2022/08/24 11:49:06;;;;;;;;;;;28.20;99.90;;;;;;10403694;28;21605;-84
2022/08/24 12:01:56;;;;;;;33.97;11.77;;;27.50;99.90;;;;;;10395113;28;20420;-85
2022/08/24 12:13:02;;;;;;;32.78;10.45;;;27.50;99.90;;;;;;10797706;23;20056;-88
2022/08/24 12:18:09;;;;;;;29.17;11.77;;;27.60;99.90;;;;;;10343514;28;20045;-87
2022/08/24 12:35:39;;;;;;;31.73;11.63;;;27.70;99.90;;;;;;10352905;28;20038;-87
2022/08/24 12:41:39;;;;;;;29.42;11.70;;;27.40;99.90;;;;;;10351229;28;20511;-86
2022/08/24 13:09:55;;;;;;;30.85;12.18;;;27.90;99.90;;;;;;10327152;28;20047;-85
2022/08/24 13:15:19;;;;;;;26.45;11.10;;;28.20;99.90;;;;;;10326735;28;20044;-87
2022/08/24 13:31:54;;;;;;;23.27;11.05;;;27.20;99.90;;;;;;11084282;23;20069;-84
2022/08/24 13:37:21;;;;;;;26.90;10.73;;;27.20;99.90;;;;;;10366225;28;20022;-84
2022/08/24 13:43:02;;;;;;;22.42;9.88;;;27.30;99.90;;;;;;10365913;28;20029;-84
2022/08/24 13:48:44;;;;;;;28.23;10.30;;;27.20;99.90;;;;;;10365577;28;20026;-85
2022/08/24 13:53:54;;;;;;;23.63;9.23;;;27.30;99.90;;;;;;10350497;28;20126;-87
2022/08/24 13:59:06;;;;;;;19.85;8.65;;;27.50;99.90;;;;;;10364476;28;20816;-84
2022/08/24 14:04:25;;;;;;;27.88;9.25;;;27.50;99.90;;;;;;10347277;28;20505;-85
2022/08/24 14:09:53;;;;;;;24.67;9.07;;;27.60;99.90;;;;;;10361644;28;20030;-84
2022/08/24 14:15:10;;;;;;;28.15;10.18;;;27.50;99.90;;;;;;10360691;28;20065;-85
2022/08/24 14:20:22;;;;;;;27.02;11.00;;;27.20;99.90;;;;;;10322155;28;20041;-83
2022/08/24 14:25:32;;;;;;;25.38;9.38;;;26.70;99.90;;;;;;10344255;28;20030;-86
2022/08/24 14:30:34;;;;;;;24.05;9.20;;;26.40;99.90;;;;;;10309170;28;20093;-84
2022/08/24 14:59:36;;;;;;;17.20;10.75;;;27.40;99.90;;;;;;10859886;23;20058;-85
2022/08/24 15:10:28;;;;;;;29.83;12.73;;;27.50;99.90;;;;;;10338868;28;20042;-85
2022/08/24 15:26:34;;;;;;;31.92;13.63;;;26.90;99.90;;;;;;11238662;23;20057;-86
2022/08/24 15:31:34;;;;;;;34.08;14.45;;;26.80;99.90;;;;;;10338222;28;20509;-88
2022/08/24 15:36:35;;;;;;;33.78;14.23;;;26.70;99.90;;;;;;10350546;28;20113;-87
2022/08/24 15:41:40;;;;;;;31.70;14.88;;;26.60;99.90;;;;;;10360737;28;20045;-85
2022/08/24 15:46:47;;;;;;;32.60;16.42;;;26.50;99.90;;;;;;10360840;28;20678;-87
2022/08/24 16:20:47;;;;;;;29.55;16.10;;;26.00;99.90;;;;;;10342810;28;20041;-87
2022/08/24 16:31:53;;;;;;;30.90;16.85;;;26.10;99.90;;;;;;10361761;28;20057;-87
2022/08/24 16:53:49;;;;;;;34.78;16.73;;;25.80;99.90;;;;;;10321846;28;20042;-87
2022/08/24 16:58:50;;;;;;;28.25;17.13;;;25.70;99.90;;;;;;10315081;28;20042;-87
2022/08/24 17:21:12;;;;;;;12.45;3.67;;;24.70;99.90;;;;;;10706348;23;20127;-87
2022/08/24 17:32:10;;;;;;;10.80;3.78;;;23.60;99.90;;;;;;10402322;28;20033;-86
2022/08/24 17:37:11;;;;;;;13.38;3.92;;;23.30;99.90;;;;;;10387625;28;20099;-86
2022/08/24 17:42:26;;;;;;;10.50;4.32;;;23.20;99.90;;;;;;10396226;28;20175;-85
2022/08/24 17:53:27;;;;;;;10.52;4.68;;;22.80;99.90;;;;;;10403569;28;20485;-81
2022/08/24 18:04:34;;;;;;;13.05;3.85;;;22.60;99.90;;;;;;10403977;28;20025;-82
2022/08/24 18:09:40;;;;;;;12.35;3.78;;;22.30;99.90;;;;;;10389534;28;20034;-80
2022/08/24 18:15:15;;;;;;;12.02;3.75;;;22.20;99.90;;;;;;10406075;28;20030;-82
2022/08/24 18:20:24;;;;;;;5.25;2.90;;;22.00;99.90;;;;;;10346608;28;20058;-82
2022/08/24 18:25:25;;;;;;;10.18;3.80;;;21.90;99.90;;;;;;10383628;28;20018;-83
2022/08/24 18:36:31;;;;;;;8.88;3.42;;;21.60;99.90;;;;;;10290996;28;20808;-81
2022/08/24 18:41:36;;;;;;;9.40;2.97;;;21.50;99.90;;;;;;10341659;28;20036;-84
2022/08/24 18:46:38;;;;;;;8.90;4.00;;;21.40;99.90;;;;;;10350970;28;20069;-82
2022/08/24 18:51:39;;;;;;;9.93;3.67;;;21.40;99.90;;;;;;10354651;28;20022;-82
2022/08/24 18:56:40;;;;;;;8.32;3.83;;;21.30;99.90;;;;;;10331731;28;20030;-82
2022/08/24 19:07:06;;;;;;;9.05;3.80;;;21.20;99.90;;;;;;10346268;28;20497;-82
2022/08/24 19:12:08;;;;;;;11.63;4.75;;;21.10;99.90;;;;;;10350198;28;20030;-83
2022/08/24 19:17:08;;;;;;;10.93;4.13;;;21.00;99.90;;;;;;10354966;28;20068;-83
2022/08/24 19:22:09;;;;;;;13.43;4.55;;;21.00;99.90;;;;;;10293316;28;20501;-83
2022/08/24 19:27:10;;;;;;;12.45;4.65;;;21.00;99.90;;;;;;10309639;28;20038;-85
2022/08/24 19:32:13;;;;;;;14.50;4.38;;;20.80;99.90;;;;;;10306556;28;20045;-84
2022/08/24 19:37:14;;;;;;;14.18;4.50;;;20.80;99.90;;;;;;10307933;28;20514;-82
2022/08/24 19:42:15;;;;;;;13.15;4.70;;;20.70;99.90;;;;;;10299976;28;20045;-83
2022/08/24 19:47:16;;;;;;;11.93;4.88;;;20.70;99.90;;;;;;10318909;28;20042;-83
2022/08/24 19:52:17;;;;;;;13.32;5.07;;;20.60;99.90;;;;;;10320824;28;20030;-83
2022/08/24 19:57:24;;;;;;;10.95;5.22;;;20.50;99.90;;;;;;10319316;28;20030;-82
2022/08/24 20:02:24;;;;;;;16.00;5.00;;;20.40;99.90;;;;;;10314966;28;20442;-83
2022/08/24 20:07:25;;;;;;;13.73;4.82;;;20.30;99.90;;;;;;10318427;28;21302;-83
2022/08/24 20:12:26;;;;;;;10.63;4.60;;;20.30;99.90;;;;;;10303153;28;20030;-82
2022/08/24 20:17:28;;;;;;;10.43;4.82;;;20.20;99.90;;;;;;10326109;28;20057;-82
2022/08/24 20:22:28;;;;;;;12.38;5.55;;;20.20;99.90;;;;;;10364544;28;20034;-83
2022/08/24 20:27:30;;;;;;;11.63;4.45;;;20.30;99.90;;;;;;10368141;28;20038;-83
2022/08/24 20:32:30;;;;;;;15.50;5.55;;;20.10;99.90;;;;;;10360538;28;20386;-83
2022/08/24 20:37:32;;;;;;;8.68;4.22;;;20.10;99.90;;;;;;10378240;28;20037;-83
2022/08/24 20:42:32;;;;;;;12.77;4.65;;;20.00;99.90;;;;;;10386864;28;20040;-83
2022/08/24 20:47:33;;;;;;;10.02;5.05;;;19.90;99.90;;;;;;10369084;28;20553;-82
2022/08/24 20:52:33;;;;;;;15.38;5.30;;;19.90;99.90;;;;;;10379470;28;20048;-82
2022/08/24 20:57:34;;;;;;;18.90;5.00;;;19.80;99.90;;;;;;10365535;28;20593;-82
2022/08/24 21:02:35;;;;;;;14.70;4.70;;;19.80;99.90;;;;;;10373649;28;20708;-82
2022/08/24 21:07:36;;;;;;;9.50;5.18;;;19.70;99.90;;;;;;10352888;28;20097;-83
2022/08/24 21:12:37;;;;;;;13.38;4.72;;;19.70;99.90;;;;;;10368156;28;20116;-82
2022/08/24 21:17:38;;;;;;;10.40;4.82;;;19.70;99.90;;;;;;10359596;28;20055;-83
2022/08/24 21:22:38;;;;;;;13.45;5.20;;;19.80;99.90;;;;;;10359144;28;20022;-83
2022/08/24 21:27:41;;;;;;;10.93;5.32;;;19.80;99.90;;;;;;10336666;28;20042;-83
2022/08/24 21:38:01;;;;;;;13.25;5.32;;;19.80;99.90;;;;;;10361880;28;20497;-84
2022/08/24 21:43:03;;;;;;;11.75;5.43;;;19.70;99.90;;;;;;10320564;28;20046;-84
2022/08/24 21:48:03;;;;;;;12.32;5.28;;;19.70;99.90;;;;;;10353077;28;20038;-84
2022/08/24 21:53:04;;;;;;;12.68;5.22;;;19.60;99.90;;;;;;10353922;28;20535;-82
2022/08/24 21:58:04;;;;;;;15.15;5.40;;;19.60;99.90;;;;;;10365876;28;20045;-83
2022/08/24 22:03:07;;;;;;;15.68;5.90;;;19.60;99.90;;;;;;10352905;28;20778;-83
2022/08/24 22:08:07;;;;;;;12.80;5.40;;;19.50;99.90;;;;;;10344439;28;20046;-83
2022/08/24 22:13:08;;;;;;;11.05;5.07;;;19.50;99.90;;;;;;10349895;28;20096;-83
2022/08/24 22:18:09;;;;;;;12.18;5.38;;;19.50;99.90;;;;;;10350366;28;20062;-84
2022/08/24 22:23:09;;;;;;;15.18;6.10;;;19.40;99.90;;;;;;10359038;28;20410;-83
2022/08/24 22:28:10;;;;;;;12.43;5.70;;;19.40;99.90;;;;;;10359593;28;20050;-83
2022/08/24 22:33:10;;;;;;;11.07;5.10;;;19.30;99.90;;;;;;10349397;28;20113;-84
2022/08/24 22:38:11;;;;;;;12.32;4.97;;;19.30;99.90;;;;;;10343232;28;20046;-83
2022/08/24 22:43:12;;;;;;;14.93;6.32;;;19.40;99.90;;;;;;10333277;28;20030;-82
2022/08/24 22:48:12;;;;;;;9.07;4.93;;;19.20;99.90;;;;;;10353765;28;20034;-83
2022/08/24 22:53:14;;;;;;;15.63;6.22;;;19.10;99.90;;;;;;10351726;28;20031;-84
2022/08/24 22:58:14;;;;;;;13.38;6.32;;;19.10;99.90;;;;;;10350730;28;20117;-82
2022/08/24 23:03:15;;;;;;;15.77;6.85;;;19.00;99.90;;;;;;10345710;28;20030;-83
2022/08/24 23:08:15;;;;;;;18.42;5.70;;;19.00;99.90;;;;;;10354383;28;20409;-83
2022/08/24 23:13:16;;;;;;;10.75;5.40;;;19.10;99.90;;;;;;10353952;28;20581;-84
2022/08/24 23:23:37;;;;;;;16.92;7.32;;;19.30;99.90;;;;;;10376551;28;20069;-82
2022/08/24 23:28:38;;;;;;;15.65;6.43;;;19.20;99.90;;;;;;10388421;28;20038;-82
2022/08/24 23:33:39;;;;;;;11.80;5.97;;;19.20;99.90;;;;;;10387716;28;20037;-84
2022/08/24 23:38:40;;;;;;;18.05;6.72;;;19.30;99.90;;;;;;10370755;28;20371;-83
2022/08/24 23:43:41;;;;;;;12.93;6.20;;;19.30;99.90;;;;;;10382339;28;20033;-84
2022/08/24 23:48:42;;;;;;;8.98;5.63;;;19.20;99.90;;;;;;10371368;28;20045;-83
2022/08/24 23:53:46;;;;;;;11.70;5.68;;;19.10;99.90;;;;;;10381593;28;20492;-82
2022/08/24 23:58:48;;;;;;;12.07;5.97;;;19.10;99.90;;;;;;10384059;28;20099;-82
